Latest Weather Observations for Cape Otway

IDV60801

Issued at 9:05 am EDT Wednesday 26 November 2014 (issued every 30 minutes, with the page automatically refreshed every 10 minutes)

About weather observations | Map of weather stations | Latest weather observations for VIC | Other Formats
Station Details ID: 090015 Name: CAPE OTWAY LIGHTHOUSE Lat: -38.86 Lon: 143.51 Height: 82.0 m
Data from the previous 72 hours. | See also: Recent months at Cape Otway
Date/Time
EDT
Temp
°C
App
Temp
°C
Dew
Point
Rel
Hum
%
Delta-T
°C
Wind Press
QNH
hPa
Press
MSL
hPa
Rain
since 9 am
mm
Dir
 
Spd
km/h
Gust
km/h
Spd
kts
Gust
kts
26/09:00am 14.8 8.8 10.0 73 2.5 W 32 41 17 22 1021.0 1021.0 0.0
26/08:30am 14.5 8.9 10.1 75 2.3 W 30 41 16 22 1020.7 - 0.0
26/08:00am 14.1 8.3 9.6 74 2.3 W 30 39 16 21 1020.6 - 0.0
26/07:30am 13.8 7.5 9.1 73 2.4 W 32 43 17 23 1020.3 - 0.0
26/07:00am 13.9 7.9 8.7 71 2.6 W 30 41 16 22 1020.1 - 0.0
26/06:30am 13.6 7.9 8.4 71 2.6 W 28 39 15 21 1019.9 - 0.0
26/06:00am 13.5 8.5 9.6 77 2.0 W 26 39 14 21 1019.5 1019.5 0.0
26/05:30am 12.7 8.5 9.8 82 1.5 W 22 32 12 17 1019.4 - 0.0
26/05:00am 13.9 8.4 9.2 73 2.4 W 28 37 15 20 1019.2 - 0.0
26/04:30am 13.5 7.4 8.3 71 2.6 W 30 41 16 22 1019.1 - 0.0
26/04:00am 13.6 6.9 7.5 66 3.0 W 32 43 17 23 1019.2 - 0.0
26/03:30am 13.6 6.8 7.0 64 3.2 W 32 41 17 22 1019.1 - 0.0
26/03:00am 13.4 7.4 7.0 65 3.1 W 28 41 15 22 1019.3 1019.3 0.0
26/02:48am 13.4 7.2 6.3 62 3.4 W 28 46 15 25 1019.3 - 0.0
26/02:47am 13.4 7.3 6.5 63 3.3 W 28 46 15 25 1019.3 - 0.0
26/02:30am 13.3 6.7 6.2 62 3.4 W 30 46 16 25 1019.5 - 0.0
26/02:00am 13.2 6.2 6.0 61 3.4 W 32 41 17 22 1019.6 - 0.0
26/01:30am 13.0 6.0 6.0 62 3.3 W 32 41 17 22 1019.9 - 0.0
26/01:00am 12.9 5.6 5.4 60 3.5 W 33 46 18 25 1020.1 - 0.0
26/12:30am 13.2 6.3 6.5 64 3.2 W 32 43 17 23 1020.2 - 0.0
26/12:00am 13.5 6.9 7.6 67 2.9 W 32 43 17 23 1020.4 1020.5 0.0
 
Date/Time
EDT
Temp
°C
App
Temp
°C
Dew
Point
Rel
Hum
%
Delta-T
°C
Wind Press
QNH
hPa
Press
MSL
hPa
Rain
since 9 am
mm
Dir
 
Spd
km/h
Gust
km/h
Spd
kts
Gust
kts
25/11:30pm 13.4 8.0 8.2 71 2.6 W 26 35 14 19 1020.6 - 0.0
25/11:00pm 13.2 7.1 8.2 71 2.5 W 30 41 16 22 1020.8 - 0.0
25/10:30pm 13.5 7.6 8.9 74 2.3 W 30 39 16 21 1020.9 - 0.0
25/10:00pm 13.4 7.6 7.9 69 2.7 WSW 28 41 15 22 1020.9 - 0.0
25/09:30pm 13.4 7.2 7.9 69 2.7 W 30 43 16 23 1020.8 - 0.0
25/09:00pm 13.9 7.3 8.7 71 2.6 W 33 50 18 27 1020.6 1020.6 0.0
25/08:30pm 13.4 5.9 6.3 62 3.4 W 35 48 19 26 1020.5 - 0.0
25/08:15pm 13.7 6.7 6.9 63 3.3 W 33 52 18 28 1020.5 - 0.0
25/08:13pm 13.7 6.7 6.9 63 3.3 W 33 52 18 28 1020.5 - 0.0
25/08:00pm 13.9 6.4 6.2 59 3.7 W 35 48 19 26 1020.4 - 0.0
25/07:30pm 14.3 6.5 6.7 60 3.7 W 37 50 20 27 1020.2 - 0.0
25/07:00pm 14.5 7.2 7.2 61 3.6 W 35 48 19 26 1019.8 - 0.0
25/06:38pm 14.6 6.7 6.1 56 4.1 W 37 57 20 31 1019.5 - 0.0
25/06:36pm 14.6 6.7 6.1 56 4.1 W 37 57 20 31 1019.5 - 0.0
25/06:30pm 14.6 7.3 7.0 60 3.7 W 35 50 19 27 1019.5 - 0.0
25/06:17pm 14.4 7.4 8.4 67 3.0 WSW 35 54 19 29 1019.3 - 0.0
25/06:16pm 14.5 7.5 8.6 67 3.0 WSW 35 54 19 29 1019.4 - 0.0
25/06:00pm 14.2 6.1 7.0 62 3.5 W 39 52 21 28 1019.3 1019.3 0.0
25/05:30pm 14.4 6.2 6.5 59 3.8 W 39 50 21 27 1019.3 - 0.0
25/05:00pm 14.7 6.4 7.6 62 3.5 W 41 52 22 28 1019.4 - 0.0
25/04:30pm 14.7 6.6 7.2 61 3.7 W 39 50 21 27 1019.3 - 0.0
25/04:00pm 14.6 6.7 8.0 64 3.3 W 39 54 21 29 1019.1 - 0.0
25/03:30pm 14.6 6.8 6.8 59 3.8 W 37 54 20 29 1019.1 - 0.0
25/03:29pm 14.7 7.3 6.7 58 3.9 W 35 54 19 29 1019.0 - 0.0
25/03:27pm 14.7 7.3 6.7 58 3.9 W 35 54 19 29 1019.0 - 0.0
25/03:00pm 13.4 4.2 8.2 71 2.6 W 46 61 25 33 1019.0 1019.0 0.0
25/02:46pm 14.4 7.3 8.2 66 3.1 W 35 54 19 29 1018.9 - 0.0
25/02:44pm 14.4 7.3 8.2 66 3.1 W 35 54 19 29 1018.9 - 0.0
25/02:30pm 15.2 8.3 8.7 65 3.3 W 35 46 19 25 1019.0 - 0.0
25/02:00pm 15.3 8.3 8.4 63 3.5 W 35 46 19 25 1019.1 - 0.0
25/01:30pm 14.5 6.2 7.9 64 3.3 W 41 61 22 33 1019.0 - 0.0
25/01:24pm 14.8 6.1 7.5 61 3.6 W 43 61 23 33 1018.9 - 0.0
25/01:22pm 14.8 6.1 7.5 61 3.6 W 43 61 23 33 1018.9 - 0.0
25/01:00pm 15.1 7.9 7.7 61 3.7 W 35 52 19 28 1018.8 - 0.0
25/12:30pm 14.4 7.0 8.2 66 3.1 W 37 50 20 27 1018.8 - 0.0
25/12:19pm 12.9 5.7 9.1 78 1.9 W 37 56 20 30 1018.8 - 0.0
25/12:15pm 13.0 5.9 9.7 80 1.7 WSW 37 50 20 27 1018.8 - 0.0
25/12:10pm 13.7 7.3 9.4 75 2.2 W 33 57 18 31 1018.7 - 0.0
25/12:08pm 13.7 7.3 9.4 75 2.2 W 33 57 18 31 1018.7 - 0.0
25/12:00pm 14.6 7.5 8.0 64 3.3 W 35 50 19 27 1018.8 1018.7 0.0
25/11:30am 15.5 8.1 4.9 49 5.0 W 33 46 18 25 1018.6 - 0.0
25/11:00am 14.9 7.1 6.7 58 4.0 W 37 50 20 27 1018.3 - 0.0
25/10:30am 14.6 7.5 8.2 65 3.2 W 35 44 19 24 1018.0 - 0.0
25/10:00am 13.5 7.4 8.3 71 2.6 W 30 39 16 21 1017.9 - 0.0
25/09:30am 14.5 8.0 8.1 65 3.2 W 32 43 17 23 1017.4 - 0.0
25/09:00am 13.8 7.1 8.2 69 2.8 W 33 46 18 25 1017.0 1017.0 6.2
25/08:30am 14.0 7.1 8.7 70 2.7 WSW 35 50 19 27 1016.5 - 6.2
25/08:23am 13.2 6.7 8.2 71 2.5 WSW 32 50 17 27 1016.4 - 6.2
25/08:21am 13.2 6.7 8.2 71 2.5 WSW 32 50 17 27 1016.4 - 6.2
25/08:00am 13.7 6.7 8.5 71 2.6 WSW 35 50 19 27 1016.1 - 6.2
25/07:30am 13.4 6.3 8.2 71 2.6 WSW 35 52 19 28 1015.8 - 6.2
25/07:00am 12.9 5.9 8.3 73 2.3 W 35 50 19 27 1015.3 - 6.2
25/06:30am 12.9 5.9 8.3 73 2.3 WSW 35 54 19 29 1015.0 - 6.2
25/06:00am 12.6 6.7 9.0 79 1.8 WSW 30 54 16 29 1014.5 1014.4 6.2
25/05:58am 12.7 7.2 9.1 79 1.8 WSW 28 50 15 27 1014.4 - 6.2
25/05:56am 12.7 7.2 9.1 79 1.8 WSW 28 50 15 27 1014.4 - 6.2
25/05:30am 12.4 5.1 8.6 77 1.9 WSW 37 52 20 28 1014.3 - 6.2
25/05:00am 11.2 3.9 8.8 85 1.2 WSW 37 56 20 30 1013.9 - 6.0
25/04:58am 11.6 3.7 9.4 86 1.1 WSW 41 59 22 32 1013.9 - 6.0
25/04:49am 12.5 4.5 9.1 80 1.7 SW 41 59 22 32 1013.7 - 4.6
25/04:45am 12.8 3.8 9.0 78 1.9 SW 46 54 25 29 1013.7 - 4.4
25/04:30am 13.1 4.9 8.3 72 2.4 W 41 54 22 29 1013.5 - 4.4
25/04:02am 12.7 5.1 9.1 79 1.8 W 39 57 21 31 1013.4 - 4.4
25/04:00am 12.7 5.1 9.1 79 1.8 W 39 57 21 31 1013.4 - 4.4
25/03:50am 12.1 5.8 8.9 81 1.6 W 32 50 17 27 1013.3 - 4.4
25/03:30am 11.6 4.5 8.1 79 1.7 W 35 48 19 26 1013.4 - 4.4
25/03:16am 12.2 6.0 9.2 82 1.5 WSW 32 54 17 29 1013.4 - 3.8
25/03:04am 11.1 3.8 7.4 78 1.8 W 35 43 19 23 1013.4 - 3.8
25/03:00am 11.8 3.1 8.4 80 1.7 WSW 44 63 24 34 1013.5 1013.4 3.8
25/02:59am 12.1 3.2 9.1 82 1.5 WSW 46 63 25 34 1013.3 - 3.2
25/02:41am 12.6 5.0 7.7 72 2.4 W 37 56 20 30 1013.2 - 3.0
25/02:39am 12.6 5.0 7.7 72 2.4 W 37 56 20 30 1013.2 - 3.0
25/02:30am 12.1 4.1 7.6 74 2.2 W 39 56 21 30 1013.2 - 3.0
25/02:06am 12.7 6.4 9.1 79 1.8 W 32 50 17 27 1012.9 - 3.0
25/02:04am 12.7 6.4 9.1 79 1.8 W 32 50 17 27 1012.9 - 3.0
25/02:00am 12.6 6.7 9.0 79 1.8 W 30 46 16 25 1013.0 - 3.0
25/01:30am 13.5 6.0 7.9 69 2.8 W 37 50 20 27 1012.9 - 2.0
25/01:14am 13.1 7.0 8.3 72 2.4 W 30 50 16 27 1012.9 - 2.0
25/01:12am 13.1 7.0 8.3 72 2.4 W 30 50 16 27 1012.9 - 2.0
25/01:00am 13.0 5.9 7.9 71 2.5 W 35 46 19 25 1013.0 - 2.0
25/12:30am 12.2 4.5 7.2 71 2.4 W 37 48 20 26 1013.0 - 2.0
25/12:03am 13.8 5.9 7.7 66 3.0 W 39 59 21 32 1012.5 - 1.6
25/12:01am 13.8 5.9 7.7 66 3.0 W 39 59 21 32 1012.5 - 1.6
25/12:00am 13.8 6.0 6.8 62 3.4 W 37 52 20 28 1012.6 1012.6 1.6
 
Date/Time
EDT
Temp
°C
App
Temp
°C
Dew
Point
Rel
Hum
%
Delta-T
°C
Wind Press
QNH
hPa
Press
MSL
hPa
Rain
since 9 am
mm
Dir
 
Spd
km/h
Gust
km/h
Spd
kts
Gust
kts
24/11:30pm 13.7 5.3 5.7 58 3.8 W 39 57 21 31 1012.6 - 1.6
24/11:09pm 13.4 6.7 7.3 66 3.0 WSW 32 54 17 29 1012.6 - 1.6
24/11:07pm 13.4 6.5 7.3 66 3.0 WSW 33 54 18 29 1012.6 - 1.6
24/11:00pm 13.3 6.7 8.5 72 2.4 WSW 33 44 18 24 1012.8 - 1.6
24/10:54pm 13.3 6.3 8.5 72 2.4 WSW 35 48 19 26 1012.8 - 1.6
24/10:51pm 13.6 7.1 8.2 70 2.7 WSW 32 44 17 24 1012.8 - 1.6
24/10:30pm 13.8 5.6 5.0 55 4.1 W 37 48 20 26 1012.7 - 1.6
24/10:00pm 13.8 6.2 5.8 58 3.8 W 35 50 19 27 1012.5 - 1.6
24/09:30pm 13.6 4.9 6.1 60 3.6 W 41 56 22 30 1012.1 - 1.6
24/09:00pm 13.5 5.2 6.2 61 3.5 W 39 52 21 28 1011.7 1011.7 1.6
24/08:30pm 14.1 6.8 7.4 64 3.3 W 35 46 19 25 1011.4 - 1.6
24/08:00pm 14.4 7.2 7.8 64 3.3 W 35 50 19 27 1011.0 - 1.6
24/07:30pm 14.7 7.2 8.1 64 3.3 W 37 56 20 30 1010.5 - 1.6
24/07:15pm 14.5 7.2 8.6 67 3.0 W 37 56 20 30 1010.1 - 1.6
24/07:00pm 14.6 7.6 8.5 67 3.1 W 35 52 19 28 1009.6 - 1.6
24/06:34pm 14.6 8.2 9.2 70 2.8 WSW 33 52 18 28 1008.9 - 1.6
24/06:32pm 14.6 8.2 9.2 70 2.8 WSW 33 52 18 28 1008.9 - 1.6
24/06:30pm 14.8 8.1 9.6 71 2.7 WSW 35 52 19 28 1008.8 - 1.6
24/06:00pm 14.2 8.7 10.6 79 1.9 W 30 43 16 23 1008.8 1008.7 1.6
24/05:30pm 13.8 8.6 10.2 79 1.9 W 28 39 15 21 1008.8 - 1.6
24/05:00pm 13.4 7.3 9.9 79 1.8 W 32 41 17 22 1008.7 - 1.6
24/04:30pm 12.6 6.7 11.1 91 0.8 W 33 46 18 25 1008.5 - 1.6
24/04:11pm 13.3 7.3 12.2 93 0.6 WSW 35 57 19 31 1008.2 - 1.6
24/04:09pm 13.3 7.3 12.2 93 0.6 WSW 35 57 19 31 1008.2 - 1.6
24/04:00pm 13.4 6.7 12.3 93 0.6 WSW 39 54 21 29 1008.2 - 1.6
24/03:30pm 14.6 8.7 12.4 87 1.2 W 35 57 19 31 1007.7 - 1.4
24/03:28pm 15.3 10.4 12.4 83 1.6 W 30 50 16 27 1007.6 - 1.4
24/03:26pm 15.3 10.4 12.4 83 1.6 W 30 50 16 27 1007.6 - 1.4
24/03:00pm 16.4 11.4 12.2 76 2.3 W 30 37 16 20 1007.8 1007.8 1.4
24/02:30pm 16.2 13.3 13.0 81 1.8 W 20 30 11 16 1007.9 - 1.4
24/02:00pm 16.1 13.8 13.1 82 1.7 W 17 28 9 15 1008.0 - 1.4
24/01:30pm 16.0 13.9 13.7 86 1.3 W 17 26 9 14 1007.9 - 1.4
24/01:00pm 16.0 12.7 13.9 87 1.2 WNW 24 33 13 18 1007.8 - 1.4
24/12:30pm 14.9 11.4 13.3 90 0.9 WNW 24 35 13 19 1007.8 - 1.4
24/12:00pm 14.9 12.6 13.1 89 1.0 W 17 20 9 11 1008.0 1008.0 1.4
24/11:30am 14.7 13.8 12.7 88 1.1 WNW 9 13 5 7 1008.2 - 1.4
24/11:00am 15.0 14.1 12.6 85 1.3 NW 9 13 5 7 1008.1 - 0.2
24/10:30am 15.2 14.4 13.0 87 1.2 WNW 9 13 5 7 1008.1 - 0.2
24/10:00am 14.9 14.7 12.9 88 1.1 N 6 9 3 5 1008.5 - 0.2
24/09:30am 14.6 12.9 12.6 88 1.1 W 13 19 7 10 1008.9 - 0.0
24/09:00am 14.5 14.0 12.5 88 1.1 NW 7 13 4 7 1008.8 1008.9 2.2
24/08:30am 13.8 12.4 12.1 89 0.9 ENE 11 17 6 9 1008.4 - 2.2
24/08:00am 13.7 11.9 12.2 91 0.8 ENE 13 19 7 10 1008.7 - 2.2
24/07:30am 13.5 11.6 11.8 89 0.9 NE 13 20 7 11 1009.1 - 2.2
24/07:00am 14.3 13.4 12.5 89 1.0 N 9 20 5 11 1008.7 - 2.0
24/06:44am 14.4 12.1 11.8 84 1.4 NW 15 26 8 14 1009.8 - 0.2
24/06:42am 14.4 12.1 11.8 84 1.4 NE 15 26 8 14 1009.8 - 0.2
24/06:30am 14.3 11.1 11.9 85 1.3 ENE 20 30 11 16 1007.2 - 0.2
24/06:00am 14.6 10.9 12.6 88 1.1 ENE 24 32 13 17 1007.8 1007.8 0.2
24/05:30am 14.7 12.9 12.1 84 1.4 E 13 19 7 10 1008.3 - 0.2
24/05:00am 14.3 11.2 12.1 87 1.2 E 20 28 11 15 1008.0 - 0.2
24/04:30am 14.6 11.4 11.2 80 1.8 E 19 26 10 14 1008.3 - 0.2
24/04:00am 14.6 12.2 10.0 74 2.4 E 13 20 7 11 1009.1 - 0.0
24/03:30am 14.4 10.6 8.9 69 2.8 ENE 19 24 10 13 1009.5 - 0.0
24/03:00am 14.1 11.1 9.2 72 2.5 E 15 20 8 11 1009.8 1009.8 0.0
24/02:30am 14.5 11.7 8.4 67 3.1 ENE 13 17 7 9 1010.7 - 0.0
24/02:00am 15.0 10.8 7.6 61 3.7 NE 19 22 10 12 1011.2 - 0.0
24/01:30am 14.5 11.2 7.9 64 3.3 ENE 15 19 8 10 1011.6 - 0.0
24/01:00am 14.9 11.0 7.0 59 3.9 NE 17 22 9 12 1011.9 - 0.0
24/12:30am 14.8 10.8 6.8 58 3.9 NE 17 24 9 13 1012.2 - 0.0
24/12:00am 14.7 11.3 7.7 63 3.5 NNE 15 19 8 10 1012.9 1012.9 0.0
 
Date/Time
EDT
Temp
°C
App
Temp
°C
Dew
Point
Rel
Hum
%
Delta-T
°C
Wind Press
QNH
hPa
Press
MSL
hPa
Rain
since 9 am
mm
Dir
 
Spd
km/h
Gust
km/h
Spd
kts
Gust
kts
23/11:30pm 14.9 11.1 7.7 62 3.6 NNE 17 22 9 12 1013.2 - 0.0
23/11:00pm 14.3 10.9 9.2 71 2.6 NE 17 20 9 11 1013.1 - 0.0
23/10:30pm 14.2 10.8 9.3 72 2.5 NNE 17 20 9 11 1013.3 - 0.0
23/10:00pm 14.1 10.9 10.1 77 2.1 NNE 17 20 9 11 1013.4 - 0.0
23/09:30pm 14.0 10.9 10.2 78 2.0 NNE 17 22 9 12 1013.1 - 0.0
23/09:00pm 14.4 11.7 11.6 83 1.5 NE 17 20 9 11 1012.9 1013.0 0.0
23/08:30pm 14.7 12.4 11.7 82 1.6 ENE 15 22 8 12 1013.3 - 0.0
23/08:00pm 15.0 13.1 11.9 82 1.7 ENE 13 24 7 13 1012.6 - 0.0
23/07:30pm 15.5 14.8 12.0 79 1.9 E 7 11 4 6 1012.8 - 0.0
23/07:00pm 15.7 15.4 11.6 76 2.2 SE 4 7 2 4 1013.0 - 0.0
23/06:30pm 16.2 16.4 12.0 76 2.3 SSE 2 7 1 4 1013.1 - 0.0
23/06:00pm 16.2 15.7 12.0 76 2.3 WSW 6 9 3 5 1013.1 1013.1 0.0
23/05:30pm 16.3 15.6 12.1 76 2.3 WSW 7 11 4 6 1013.2 - 0.0
23/05:00pm 16.7 15.3 12.2 75 2.5 WSW 11 15 6 8 1013.0 - 0.0
23/04:30pm 16.9 15.1 12.2 74 2.6 WSW 13 17 7 9 1013.2 - 0.0
23/04:00pm 16.9 15.4 11.8 72 2.8 WSW 11 15 6 8 1012.9 - 0.0
23/03:30pm 16.7 13.6 11.6 72 2.8 WSW 19 20 10 11 1013.0 - 0.0
23/03:00pm 17.1 14.0 12.2 73 2.7 WSW 20 26 11 14 1012.8 1012.7 0.0
23/02:30pm 17.3 14.1 12.0 71 2.9 WSW 20 28 11 15 1012.8 - 0.0
23/02:00pm 17.5 14.4 12.3 71 2.9 WSW 20 24 11 13 1012.6 - 0.0
23/01:30pm 17.5 13.9 11.9 69 3.1 WSW 22 28 12 15 1012.1 - 0.0
23/01:00pm 17.6 14.5 12.2 70 3.0 WSW 20 28 11 15 1012.1 - 0.0
23/12:30pm 17.3 14.4 12.4 73 2.7 WSW 19 24 10 13 1012.4 - 0.0
23/12:00pm 17.2 14.3 12.9 76 2.4 WSW 20 24 11 13 1012.7 1012.7 0.0
23/11:30am 16.7 13.5 12.0 74 2.6 WSW 20 24 11 13 1012.8 - 0.0
23/11:00am 17.1 14.4 11.6 70 3.0 WSW 17 22 9 12 1012.8 - 0.0
23/10:30am 17.1 14.8 11.6 70 3.0 W 15 22 8 12 1013.0 - 0.0
23/10:00am 16.7 14.2 11.1 69 3.0 W 15 20 8 11 1013.1 - 0.0
23/09:30am 16.9 14.8 11.0 68 3.2 W 13 17 7 9 1013.3 - 0.0

Other Formats:

Comma delimited format used in spreadsheet applications
http://www.bom.gov.au/fwo/IDV60801/IDV60801.94842.axf

JavaScript Object Notation format (JSON) in row-major order
http://www.bom.gov.au/fwo/IDV60801/IDV60801.94842.json